Arivaca, Arizona
Current Conditions -  °F | °C
As of 11:54 AM on Thursday 27 Nov 2014 (Local Time) from KOLS Reporting Station
Clear Clear  
Wind Chill: 78°   Ceiling: Unl
Heat Index: 78°   Visibility: 10mi
Dew Point: 18°   Wind: 3mph
Humidity: 10%   Direction: NA
Pressure: 30.23"   Gusts: NA
Location:  31.57°N, 111.33°W
Report Text: KOLS 271854Z AUTO VRB03KT 10SM CLR 26/M08 A3023 RMK AO2 SLP193 T02561078
Loading
Personal Weather Stations






























Interactive Weather Map New forecast layout! Learn more

10-Day Weather Forecast

Advertisements
Track Severe Weather on mobile